createdAt,value
2023-03-21T00:07:50.595Z,99.90
2023-03-21T00:10:41.691Z,99.90
2023-03-21T00:13:15.684Z,99.90
2023-03-21T00:16:17.458Z,99.90
2023-03-21T00:38:47.313Z,99.90
2023-03-21T00:41:26.124Z,99.90
2023-03-21T00:43:58.522Z,99.90
2023-03-21T00:47:09.674Z,99.90
2023-03-21T00:50:08.865Z,99.90
2023-03-21T00:52:40.796Z,99.90
2023-03-21T00:55:11.299Z,99.90
2023-03-21T00:57:50.227Z,99.90
2023-03-21T01:04:51.544Z,99.90
2023-03-21T01:07:18.301Z,99.90
2023-03-21T01:09:45.210Z,99.90
2023-03-21T01:12:12.248Z,99.90
2023-03-21T01:19:04.801Z,99.90
2023-03-21T01:21:32.271Z,99.90
2023-03-21T01:23:59.747Z,99.90
2023-03-21T01:26:26.505Z,99.90
2023-03-21T01:29:54.552Z,99.90
2023-03-21T01:32:47.132Z,99.90
2023-03-21T01:35:13.884Z,99.90
2023-03-21T01:37:40.831Z,99.90
2023-03-21T01:43:40.749Z,99.90
2023-03-21T01:46:57.105Z,99.90
2023-03-21T01:49:38.631Z,99.90
2023-03-21T01:52:15.130Z,99.90
2023-03-21T01:58:58.013Z,99.90
2023-03-21T02:01:25.035Z,99.90
2023-03-21T02:03:52.334Z,99.90
2023-03-21T02:06:33.930Z,99.90
2023-03-21T02:20:17.384Z,99.90
2023-03-21T02:22:57.918Z,99.90
2023-03-21T02:38:58.442Z,99.90
2023-03-21T02:41:43.792Z,99.90
2023-03-21T02:44:25.033Z,99.90
2023-03-21T02:47:11.075Z,99.90
2023-03-21T03:15:02.991Z,99.90
2023-03-21T03:21:49.070Z,99.90
2023-03-21T03:24:26.046Z,99.90
2023-03-21T03:27:13.290Z,99.90
2023-03-21T03:33:04.247Z,99.90
2023-03-21T03:36:05.097Z,99.90
2023-03-21T03:38:35.411Z,99.90
2023-03-21T03:41:10.349Z,99.90
2023-03-21T06:15:11.756Z,99.90
2023-03-21T06:23:03.936Z,99.90
2023-03-21T06:56:37.875Z,99.90
2023-03-21T07:04:44.876Z,99.90
2023-03-21T07:07:20.884Z,99.90
2023-03-21T07:21:35.217Z,99.90
2023-03-21T07:27:18.201Z,99.90
2023-03-21T07:29:49.937Z,99.90
2023-03-21T07:38:24.264Z,99.90
2023-03-21T07:40:51.227Z,99.90
2023-03-21T07:45:57.941Z,99.90
2023-03-21T07:48:26.028Z,99.90
2023-03-21T07:54:08.315Z,99.90
2023-03-21T07:57:39.610Z,99.90
2023-03-21T08:00:31.480Z,99.90
2023-03-21T08:02:59.237Z,99.90
2023-03-21T08:05:44.977Z,99.90
2023-03-21T08:12:21.111Z,99.90
2023-03-21T08:14:48.132Z,99.90
2023-03-21T08:17:14.881Z,99.90
2023-03-21T08:19:41.761Z,99.90
2023-03-21T08:23:17.965Z,99.90
2023-03-21T08:26:10.349Z,99.90
2023-03-21T08:28:39.469Z,99.90
2023-03-21T08:31:11.137Z,99.90
2023-03-21T08:33:41.226Z,99.90
2023-03-21T08:40:13.404Z,99.90
2023-03-21T08:42:47.210Z,99.90
2023-03-21T08:45:15.867Z,99.90
2023-03-21T08:47:51.389Z,99.90
2023-03-21T09:02:11.174Z,99.90
2023-03-21T09:05:14.614Z,99.90
2023-03-21T09:08:10.212Z,99.90
2023-03-21T09:10:37.001Z,99.90
2023-03-21T09:13:03.767Z,99.90
2023-03-21T09:15:30.791Z,99.90
2023-03-21T09:21:53.921Z,99.90
2023-03-21T09:24:22.004Z,99.90
2023-03-21T09:26:50.932Z,99.90
2023-03-21T09:29:19.627Z,99.90
2023-03-21T09:31:48.409Z,99.90
2023-03-21T09:34:22.806Z,99.90
2023-03-21T09:40:16.620Z,99.90
2023-03-21T09:53:39.229Z,99.90
2023-03-21T09:56:17.411Z,99.90
2023-03-21T09:59:09.422Z,99.90
2023-03-21T10:16:59.557Z,99.90
2023-03-21T10:19:30.041Z,99.90
2023-03-21T10:22:01.119Z,99.90
2023-03-21T10:24:56.387Z,99.90
2023-03-21T10:27:52.654Z,99.90
2023-03-21T10:35:11.127Z,99.90
2023-03-21T10:42:04.475Z,99.90
2023-03-21T10:44:34.413Z,99.90
2023-03-21T10:47:07.588Z,99.90
2023-03-21T10:49:56.502Z,99.90
2023-03-21T10:57:15.648Z,99.90
2023-03-21T10:59:47.302Z,99.60
2023-03-21T11:04:45.930Z,99.90
2023-03-21T11:07:15.403Z,99.90
2023-03-21T11:09:57.378Z,99.90
2023-03-21T11:12:39.737Z,99.90
2023-03-21T11:15:28.145Z,99.70
2023-03-21T11:17:55.305Z,99.90
2023-03-21T11:20:22.267Z,99.90
2023-03-21T11:22:49.396Z,99.90
2023-03-21T11:25:25.215Z,99.90
2023-03-21T11:27:55.932Z,99.90
2023-03-21T11:30:28.073Z,99.90
2023-03-21T11:32:57.560Z,99.90
2023-03-21T11:35:28.420Z,99.90
2023-03-21T11:37:57.054Z,98.50
2023-03-21T11:40:23.842Z,98.60
2023-03-21T11:42:56.717Z,98.10
2023-03-21T11:45:32.841Z,99.00
2023-03-21T11:48:01.790Z,99.30
2023-03-21T11:50:35.037Z,99.90
2023-03-21T11:53:01.839Z,99.90
2023-03-21T11:55:41.966Z,99.80
2023-03-21T11:58:24.794Z,99.00
2023-03-21T12:01:11.483Z,99.50
2023-03-21T12:03:54.791Z,99.30
2023-03-21T12:06:59.494Z,99.00
2023-03-21T12:09:35.711Z,98.30
2023-03-21T12:12:38.487Z,99.10
2023-03-21T12:15:13.570Z,99.50
2023-03-21T12:17:43.231Z,98.40
2023-03-21T12:20:22.470Z,98.40
2023-03-21T12:23:13.420Z,98.90
2023-03-21T12:25:59.217Z,97.90
2023-03-21T12:28:50.872Z,98.00
2023-03-21T12:31:17.538Z,99.00
2023-03-21T12:33:50.905Z,98.40
2023-03-21T12:36:50.284Z,99.90
2023-03-21T12:39:49.356Z,98.90
2023-03-21T12:42:49.658Z,99.90
2023-03-21T12:45:23.828Z,99.60
2023-03-21T12:47:57.560Z,99.40
2023-03-21T12:50:36.850Z,98.60
2023-03-21T12:53:37.789Z,99.10
2023-03-21T12:56:10.255Z,97.80
2023-03-21T12:58:48.022Z,99.20
2023-03-21T13:01:17.494Z,98.10
2023-03-21T13:03:52.733Z,97.90
2023-03-21T13:06:22.752Z,99.90
2023-03-21T13:08:58.533Z,99.60
2023-03-21T13:11:28.545Z,99.90
2023-03-21T13:14:13.733Z,99.40
2023-03-21T13:17:16.475Z,99.10
2023-03-21T13:20:23.340Z,99.10
2023-03-21T13:22:50.090Z,98.40
2023-03-21T13:25:25.029Z,97.90
2023-03-21T13:27:53.062Z,98.70
2023-03-21T13:30:23.676Z,97.90
2023-03-21T13:32:52.519Z,97.60
2023-03-21T13:35:27.385Z,97.80
2023-03-21T13:37:59.137Z,97.50
2023-03-21T13:40:34.901Z,98.00
2023-03-21T13:43:03.706Z,98.40
2023-03-21T13:45:45.901Z,97.90
2023-03-21T13:48:44.082Z,97.60
2023-03-21T13:51:37.479Z,98.50
2023-03-21T13:54:07.139Z,97.60
2023-03-21T13:56:48.391Z,98.00
2023-03-21T13:59:44.590Z,97.40
2023-03-21T14:02:38.379Z,97.50
2023-03-21T14:05:17.745Z,96.80
2023-03-21T14:07:49.876Z,96.60
2023-03-21T14:10:28.799Z,96.60
2023-03-21T14:12:55.673Z,96.60
2023-03-21T14:15:25.753Z,97.70
2023-03-21T14:17:59.441Z,97.10
2023-03-21T14:20:27.773Z,97.40
2023-03-21T14:22:54.876Z,97.30
2023-03-21T14:25:27.197Z,97.60
2023-03-21T14:27:59.574Z,97.40
2023-03-21T14:30:30.255Z,97.50
2023-03-21T14:32:59.267Z,97.60
2023-03-21T14:35:31.370Z,97.70
2023-03-21T14:38:03.474Z,98.00
2023-03-21T14:40:30.472Z,98.40
2023-03-21T14:42:57.431Z,97.90
2023-03-21T14:45:27.940Z,98.10
2023-03-21T14:48:04.328Z,97.60
2023-03-21T14:50:38.644Z,97.70
2023-03-21T14:53:07.461Z,97.40
2023-03-21T14:55:46.255Z,97.90
2023-03-21T14:58:16.108Z,96.50
2023-03-21T15:00:43.069Z,97.40
2023-03-21T15:03:12.839Z,97.70
2023-03-21T15:05:42.439Z,97.50
2023-03-21T15:08:21.311Z,96.50
2023-03-21T15:11:06.918Z,96.90
2023-03-21T15:13:46.031Z,97.20
2023-03-21T15:16:15.036Z,96.20
2023-03-21T15:18:42.961Z,97.50
2023-03-21T15:21:16.754Z,97.70
2023-03-21T15:23:46.593Z,95.80
2023-03-21T15:26:19.153Z,97.60
2023-03-21T15:28:48.564Z,95.90
2023-03-21T15:31:21.014Z,97.50
2023-03-21T15:33:53.736Z,95.40
2023-03-21T15:36:42.216Z,96.30
2023-03-21T15:39:14.066Z,95.90
2023-03-21T15:41:43.015Z,95.00
2023-03-21T15:44:09.671Z,94.90
2023-03-21T15:46:50.900Z,95.00
2023-03-21T15:49:33.352Z,95.40
2023-03-21T15:52:16.536Z,95.20
2023-03-21T15:54:50.290Z,95.90
2023-03-21T15:57:20.760Z,95.60
2023-03-21T15:59:47.858Z,95.30
2023-03-21T16:02:21.659Z,94.50
2023-03-21T16:04:56.171Z,94.50
2023-03-21T16:07:24.973Z,95.40
2023-03-21T16:09:59.495Z,95.60
2023-03-21T16:12:27.214Z,95.90
2023-03-21T16:14:55.443Z,95.50
2023-03-21T16:17:37.743Z,95.50
2023-03-21T16:20:17.642Z,92.00
2023-03-21T16:22:44.395Z,91.80
2023-03-21T16:25:11.322Z,91.00
2023-03-21T16:27:38.041Z,91.10
2023-03-21T16:30:05.464Z,91.50
2023-03-21T16:32:32.674Z,91.30
2023-03-21T16:35:00.115Z,91.00
2023-03-21T16:37:27.206Z,91.00
2023-03-21T16:39:54.259Z,91.80
2023-03-21T16:42:21.232Z,90.90
2023-03-21T16:44:47.937Z,90.90
2023-03-21T16:47:19.506Z,90.20
2023-03-21T16:49:46.387Z,89.50
2023-03-21T16:52:14.137Z,89.00
2023-03-21T16:54:41.643Z,89.70
2023-03-21T16:57:18.660Z,88.80
2023-03-21T16:59:45.584Z,88.80
2023-03-21T17:04:46.330Z,91.00
2023-03-21T17:07:14.471Z,92.20
2023-03-21T17:09:43.792Z,92.70
2023-03-21T17:12:15.220Z,93.20
2023-03-21T17:14:43.019Z,94.10
2023-03-21T17:17:15.014Z,95.30
2023-03-21T17:19:42.321Z,95.80
2023-03-21T17:22:10.877Z,96.50
2023-03-21T17:24:38.932Z,96.70
2023-03-21T17:27:08.336Z,96.80
2023-03-21T17:29:35.328Z,96.80
2023-03-21T17:32:02.083Z,96.80
2023-03-21T17:34:28.786Z,98.00
2023-03-21T17:36:55.489Z,98.70
2023-03-21T17:39:28.545Z,99.50
2023-03-21T17:41:56.860Z,99.90
2023-03-21T17:44:23.592Z,99.90
2023-03-21T17:46:51.934Z,99.90
2023-03-21T17:49:19.893Z,99.90
2023-03-21T17:51:46.980Z,99.90
2023-03-21T17:54:13.781Z,99.90
2023-03-21T17:56:41.905Z,99.90
2023-03-21T17:59:13.174Z,99.90
2023-03-21T18:01:40.469Z,99.90
2023-03-21T18:04:07.254Z,99.90
2023-03-21T18:06:35.142Z,99.90
2023-03-21T18:09:06.953Z,99.90
2023-03-21T18:11:34.004Z,99.90
2023-03-21T18:14:14.279Z,99.90
2023-03-21T18:16:42.694Z,99.90
2023-03-21T18:19:10.901Z,99.90
2023-03-21T18:21:40.514Z,99.90
2023-03-21T18:24:07.560Z,99.90
2023-03-21T18:26:34.524Z,99.90
2023-03-21T18:32:04.452Z,99.90
2023-03-21T18:34:33.209Z,99.90
2023-03-21T18:37:02.802Z,99.90
2023-03-21T18:39:30.652Z,99.90
2023-03-21T18:42:02.134Z,99.90
2023-03-21T18:44:37.890Z,99.90
2023-03-21T18:47:06.414Z,99.90
2023-03-21T18:50:10.364Z,99.90
2023-03-21T18:52:19.977Z,99.90
2023-03-21T18:54:47.687Z,99.90
2023-03-21T19:00:05.664Z,99.90
2023-03-21T19:02:33.349Z,99.90
2023-03-21T19:05:00.311Z,99.90
2023-03-21T19:07:27.146Z,99.90
2023-03-21T19:10:15.917Z,99.90
2023-03-21T19:12:42.040Z,99.90
2023-03-21T19:15:09.900Z,99.90
2023-03-21T19:18:23.264Z,99.90
2023-03-21T19:20:23.621Z,99.90
2023-03-21T19:22:50.954Z,99.90
2023-03-21T19:25:17.825Z,99.90
2023-03-21T19:27:44.781Z,99.90
2023-03-21T19:30:15.700Z,99.90
2023-03-21T19:32:43.549Z,99.90
2023-03-21T19:35:11.062Z,99.90
2023-03-21T19:37:37.763Z,99.90
2023-03-21T19:40:06.400Z,99.90
2023-03-21T19:42:34.659Z,99.90
2023-03-21T19:45:01.548Z,99.90
2023-03-21T19:47:28.451Z,99.90
2023-03-21T19:50:42.115Z,99.90
2023-03-21T19:52:42.223Z,99.90
2023-03-21T19:55:10.746Z,99.90
2023-03-21T19:57:37.455Z,99.90
2023-03-21T20:00:05.016Z,99.90
2023-03-21T20:02:36.590Z,99.90
2023-03-21T20:05:07.927Z,99.90
2023-03-21T20:07:35.277Z,99.90
2023-03-21T20:10:02.078Z,99.90
2023-03-21T20:12:28.789Z,99.90
2023-03-21T20:15:10.266Z,99.90
2023-03-21T20:17:42.985Z,99.90
2023-03-21T20:20:10.299Z,99.90
2023-03-21T20:23:05.198Z,99.90
2023-03-21T20:25:23.693Z,99.90
2023-03-21T20:28:09.366Z,99.90
2023-03-21T20:30:37.335Z,99.90
2023-03-21T20:33:04.332Z,99.90
2023-03-21T20:36:16.457Z,99.90
2023-03-21T20:38:20.502Z,99.90
2023-03-21T20:40:47.984Z,99.90
2023-03-21T20:44:04.891Z,99.90
2023-03-21T20:46:06.790Z,99.90
2023-03-21T20:48:34.571Z,99.90
2023-03-21T20:52:00.257Z,99.90
2023-03-21T20:53:56.606Z,99.90
2023-03-21T20:56:23.524Z,99.90
2023-03-21T20:59:04.999Z,99.90
2023-03-21T21:01:38.439Z,99.90
2023-03-21T21:04:05.773Z,99.90
2023-03-21T21:06:32.967Z,99.90
2023-03-21T21:09:00.184Z,99.90
2023-03-21T21:12:05.082Z,99.90
2023-03-21T21:14:16.066Z,99.90
2023-03-21T21:16:42.777Z,99.90
2023-03-21T21:19:09.878Z,99.90
2023-03-21T21:21:37.526Z,99.90
2023-03-21T21:24:07.464Z,99.90
2023-03-21T21:26:35.085Z,99.90
2023-03-21T21:29:02.013Z,99.90
2023-03-21T21:31:28.834Z,99.90
2023-03-21T21:33:55.569Z,99.90
2023-03-21T21:36:22.718Z,99.90
2023-03-21T21:38:49.655Z,99.90
2023-03-21T21:41:20.033Z,99.90
2023-03-21T21:43:47.559Z,99.90
2023-03-21T21:46:14.580Z,99.90
2023-03-21T21:48:41.982Z,99.90
2023-03-21T21:51:09.131Z,99.90
2023-03-21T21:53:36.547Z,99.90
2023-03-21T21:56:06.196Z,99.90
2023-03-21T21:58:33.776Z,99.90
2023-03-21T22:01:04.470Z,99.90
2023-03-21T22:03:40.975Z,99.90
2023-03-21T22:06:10.097Z,99.90
2023-03-21T22:08:37.024Z,99.90
2023-03-21T22:11:05.091Z,99.90
2023-03-21T22:13:31.898Z,99.90
2023-03-21T22:15:58.636Z,99.90
2023-03-21T22:18:25.442Z,99.90
2023-03-21T22:20:52.228Z,99.90
2023-03-21T22:23:19.439Z,99.90
2023-03-21T22:25:51.323Z,99.90
2023-03-21T22:28:22.130Z,99.90
2023-03-21T22:30:49.073Z,99.90
2023-03-21T22:33:15.786Z,99.90
2023-03-21T22:35:42.567Z,99.90
2023-03-21T22:38:09.298Z,99.90
2023-03-21T22:40:36.393Z,99.90
2023-03-21T22:43:03.368Z,99.90
2023-03-21T22:45:30.060Z,99.90
2023-03-21T22:47:58.160Z,99.90
2023-03-21T22:50:24.895Z,99.90
2023-03-21T22:52:51.616Z,99.90
2023-03-21T22:55:18.460Z,99.90
2023-03-21T22:57:45.173Z,99.90
2023-03-21T23:00:13.506Z,99.90
2023-03-21T23:02:41.444Z,99.90
2023-03-21T23:05:11.621Z,99.90
2023-03-21T23:07:38.727Z,99.90
2023-03-21T23:10:07.034Z,99.90
2023-03-21T23:12:33.749Z,99.90
2023-03-21T23:15:02.263Z,99.90
2023-03-21T23:17:29.239Z,99.90
2023-03-21T23:19:56.191Z,99.90
2023-03-21T23:22:22.897Z,99.90
2023-03-21T23:24:49.731Z,99.90
2023-03-21T23:27:18.145Z,99.90
2023-03-21T23:29:45.357Z,99.90
2023-03-21T23:32:12.044Z,99.90
2023-03-21T23:34:38.732Z,99.90
2023-03-21T23:37:06.826Z,99.90
2023-03-21T23:39:34.357Z,99.90
2023-03-21T23:42:01.469Z,99.90
2023-03-21T23:44:28.183Z,99.90
2023-03-21T23:46:55.157Z,99.90
2023-03-21T23:49:21.861Z,99.90
2023-03-21T23:51:49.972Z,99.90
2023-03-21T23:54:16.827Z,99.90
2023-03-21T23:56:43.614Z,99.90
2023-03-21T23:59:10.533Z,99.90
